sensor_id;sensor_type;location;lat;lon;timestamp;pressure;altitude;pressure_sealevel;temperature;humidity
56721;BME280;53183;47.412;18.884;2023-10-09T00:02:22;100252.88;;;8.14;67.22
56721;BME280;53183;47.412;18.884;2023-10-09T00:04:50;100243.75;;;8.25;66.69
56721;BME280;53183;47.412;18.884;2023-10-09T00:07:18;100250.72;;;8.27;66.83
56721;BME280;53183;47.412;18.884;2023-10-09T00:09:46;100254.00;;;8.34;66.87
56721;BME280;53183;47.412;18.884;2023-10-09T00:12:19;100237.25;;;8.36;67.00
56721;BME280;53183;47.412;18.884;2023-10-09T00:14:51;100231.94;;;8.38;67.40
56721;BME280;53183;47.412;18.884;2023-10-09T00:17:23;100236.81;;;8.50;66.90
56721;BME280;53183;47.412;18.884;2023-10-09T00:19:51;100229.31;;;8.38;67.29
56721;BME280;53183;47.412;18.884;2023-10-09T00:22:19;100224.22;;;8.32;67.12
56721;BME280;53183;47.412;18.884;2023-10-09T00:24:53;100228.44;;;8.37;66.88
56721;BME280;53183;47.412;18.884;2023-10-09T00:27:41;100211.78;;;8.37;66.40
56721;BME280;53183;47.412;18.884;2023-10-09T00:30:19;100221.41;;;8.38;65.53
56721;BME280;53183;47.412;18.884;2023-10-09T00:32:49;100211.28;;;8.52;65.55
56721;BME280;53183;47.412;18.884;2023-10-09T00:35:27;100219.63;;;8.65;65.19
56721;BME280;53183;47.412;18.884;2023-10-09T00:38:05;100207.16;;;8.70;65.19
56721;BME280;53183;47.412;18.884;2023-10-09T00:40:56;100210.44;;;8.77;65.51
56721;BME280;53183;47.412;18.884;2023-10-09T00:43:30;100206.84;;;8.79;65.83
56721;BME280;53183;47.412;18.884;2023-10-09T00:46:00;100204.69;;;8.90;66.34
56721;BME280;53183;47.412;18.884;2023-10-09T00:48:31;100218.38;;;9.02;65.92
56721;BME280;53183;47.412;18.884;2023-10-09T00:51:06;100213.44;;;8.91;65.39
56721;BME280;53183;47.412;18.884;2023-10-09T00:53:53;100212.38;;;8.97;64.36
56721;BME280;53183;47.412;18.884;2023-10-09T00:56:22;100206.25;;;8.96;64.08
56721;BME280;53183;47.412;18.884;2023-10-09T00:58:54;100212.28;;;9.00;65.26
56721;BME280;53183;47.412;18.884;2023-10-09T01:01:43;100217.66;;;8.97;65.69
56721;BME280;53183;47.412;18.884;2023-10-09T01:04:33;100222.53;;;9.07;65.90
56721;BME280;53183;47.412;18.884;2023-10-09T01:07:04;100223.03;;;9.19;65.63
56721;BME280;53183;47.412;18.884;2023-10-09T01:09:39;100226.09;;;9.06;65.97
56721;BME280;53183;47.412;18.884;2023-10-09T01:12:10;100220.66;;;9.11;64.92
56721;BME280;53183;47.412;18.884;2023-10-09T01:14:44;100200.28;;;9.14;64.88
56721;BME280;53183;47.412;18.884;2023-10-09T01:17:13;100204.16;;;9.29;64.73
56721;BME280;53183;47.412;18.884;2023-10-09T01:19:50;100205.72;;;9.11;65.57
56721;BME280;53183;47.412;18.884;2023-10-09T01:22:23;100215.91;;;9.21;65.42
56721;BME280;53183;47.412;18.884;2023-10-09T01:24:50;100216.28;;;9.10;66.02
56721;BME280;53183;47.412;18.884;2023-10-09T01:27:18;100220.94;;;9.03;65.92
56721;BME280;53183;47.412;18.884;2023-10-09T01:29:50;100219.31;;;8.99;66.45
56721;BME280;53183;47.412;18.884;2023-10-09T01:32:19;100214.63;;;9.07;65.71
56721;BME280;53183;47.412;18.884;2023-10-09T01:34:51;100219.03;;;9.07;65.55
56721;BME280;53183;47.412;18.884;2023-10-09T01:37:21;100224.84;;;8.91;66.20
56721;BME280;53183;47.412;18.884;2023-10-09T01:39:58;100224.09;;;8.88;66.64
56721;BME280;53183;47.412;18.884;2023-10-09T01:42:27;100218.78;;;8.89;66.00
56721;BME280;53183;47.412;18.884;2023-10-09T01:44:57;100219.91;;;9.07;65.28
56721;BME280;53183;47.412;18.884;2023-10-09T01:47:44;100222.38;;;9.12;65.03
56721;BME280;53183;47.412;18.884;2023-10-09T01:50:20;100208.38;;;8.85;66.62
56721;BME280;53183;47.412;18.884;2023-10-09T01:53:14;100225.62;;;8.70;67.34
56721;BME280;53183;47.412;18.884;2023-10-09T01:55:44;100225.94;;;8.86;67.33
56721;BME280;53183;47.412;18.884;2023-10-09T01:58:13;100234.53;;;8.91;67.26
56721;BME280;53183;47.412;18.884;2023-10-09T02:00:50;100242.91;;;8.79;67.30
56721;BME280;53183;47.412;18.884;2023-10-09T02:03:24;100238.81;;;8.68;68.30
56721;BME280;53183;47.412;18.884;2023-10-09T02:06:03;100245.44;;;8.82;68.11
56721;BME280;53183;47.412;18.884;2023-10-09T02:08:54;100243.06;;;8.99;67.04
56721;BME280;53183;47.412;18.884;2023-10-09T02:11:23;100228.62;;;9.09;66.34
56721;BME280;53183;47.412;18.884;2023-10-09T02:14:04;100223.69;;;9.00;66.67
56721;BME280;53183;47.412;18.884;2023-10-09T02:16:48;100216.94;;;8.91;66.61
56721;BME280;53183;47.412;18.884;2023-10-09T02:19:35;100214.47;;;8.87;67.03
56721;BME280;53183;47.412;18.884;2023-10-09T02:22:04;100214.53;;;9.10;67.35
56721;BME280;53183;47.412;18.884;2023-10-09T02:24:41;100208.34;;;9.11;66.79
56721;BME280;53183;47.412;18.884;2023-10-09T02:27:18;100209.34;;;9.07;66.80
56721;BME280;53183;47.412;18.884;2023-10-09T02:30:06;100221.84;;;9.02;66.77
56721;BME280;53183;47.412;18.884;2023-10-09T02:32:44;100208.28;;;8.88;66.80
56721;BME280;53183;47.412;18.884;2023-10-09T02:35:16;100211.94;;;9.09;66.21
56721;BME280;53183;47.412;18.884;2023-10-09T02:37:49;100200.66;;;9.05;66.00
56721;BME280;53183;47.412;18.884;2023-10-09T02:40:18;100193.63;;;9.04;68.62
56721;BME280;53183;47.412;18.884;2023-10-09T02:42:51;100206.06;;;9.01;70.19
56721;BME280;53183;47.412;18.884;2023-10-09T02:45:18;100219.44;;;8.96;69.33
56721;BME280;53183;47.412;18.884;2023-10-09T02:47:46;100195.53;;;9.01;70.07
56721;BME280;53183;47.412;18.884;2023-10-09T02:50:16;100187.38;;;9.08;69.40
56721;BME280;53183;47.412;18.884;2023-10-09T02:52:47;100173.78;;;9.19;68.47
56721;BME280;53183;47.412;18.884;2023-10-09T02:55:20;100176.09;;;9.03;70.05
56721;BME280;53183;47.412;18.884;2023-10-09T02:57:54;100170.50;;;9.12;68.75
56721;BME280;53183;47.412;18.884;2023-10-09T03:00:37;100180.31;;;9.09;67.86
56721;BME280;53183;47.412;18.884;2023-10-09T03:03:04;100180.13;;;9.13;68.07
56721;BME280;53183;47.412;18.884;2023-10-09T03:05:35;100186.47;;;9.08;67.76
56721;BME280;53183;47.412;18.884;2023-10-09T03:08:10;100182.84;;;8.87;67.65
56721;BME280;53183;47.412;18.884;2023-10-09T03:10:40;100190.31;;;8.99;67.83
56721;BME280;53183;47.412;18.884;2023-10-09T03:13:07;100199.84;;;9.03;67.50
56721;BME280;53183;47.412;18.884;2023-10-09T03:15:35;100189.94;;;8.85;68.35
56721;BME280;53183;47.412;18.884;2023-10-09T03:18:03;100174.84;;;8.90;68.09
56721;BME280;53183;47.412;18.884;2023-10-09T03:20:32;100173.13;;;8.89;67.48
56721;BME280;53183;47.412;18.884;2023-10-09T03:23:00;100156.59;;;8.84;66.33
56721;BME280;53183;47.412;18.884;2023-10-09T03:25:30;100164.41;;;8.87;65.99
56721;BME280;53183;47.412;18.884;2023-10-09T03:27:58;100167.03;;;8.87;65.18
56721;BME280;53183;47.412;18.884;2023-10-09T03:30:27;100160.94;;;8.85;65.12
56721;BME280;53183;47.412;18.884;2023-10-09T03:32:55;100160.84;;;8.88;64.98
56721;BME280;53183;47.412;18.884;2023-10-09T03:35:25;100156.56;;;8.85;65.79
56721;BME280;53183;47.412;18.884;2023-10-09T03:37:57;100159.97;;;8.87;65.85
56721;BME280;53183;47.412;18.884;2023-10-09T03:40:28;100164.41;;;8.87;65.21
56721;BME280;53183;47.412;18.884;2023-10-09T03:42:55;100162.84;;;8.81;66.15
56721;BME280;53183;47.412;18.884;2023-10-09T03:45:22;100173.34;;;8.83;66.12
56721;BME280;53183;47.412;18.884;2023-10-09T03:47:55;100176.00;;;8.81;65.97
56721;BME280;53183;47.412;18.884;2023-10-09T03:50:30;100171.63;;;8.82;66.59
56721;BME280;53183;47.412;18.884;2023-10-09T03:53:04;100182.16;;;8.82;66.90
56721;BME280;53183;47.412;18.884;2023-10-09T03:55:35;100169.75;;;8.85;66.79
56721;BME280;53183;47.412;18.884;2023-10-09T03:58:06;100166.84;;;8.91;66.35
56721;BME280;53183;47.412;18.884;2023-10-09T04:00:34;100170.94;;;9.24;65.80
56721;BME280;53183;47.412;18.884;2023-10-09T04:03:13;100165.28;;;9.34;64.89
56721;BME280;53183;47.412;18.884;2023-10-09T04:05:42;100163.53;;;9.35;64.49
56721;BME280;53183;47.412;18.884;2023-10-09T04:08:11;100155.53;;;9.36;64.29
56721;BME280;53183;47.412;18.884;2023-10-09T04:10:44;100162.34;;;9.42;64.09
56721;BME280;53183;47.412;18.884;2023-10-09T04:13:21;100169.69;;;9.34;63.89
56721;BME280;53183;47.412;18.884;2023-10-09T04:15:50;100169.75;;;9.32;63.91
56721;BME280;53183;47.412;18.884;2023-10-09T04:18:20;100161.03;;;9.30;63.79
56721;BME280;53183;47.412;18.884;2023-10-09T04:20:55;100155.53;;;9.36;63.97
56721;BME280;53183;47.412;18.884;2023-10-09T04:23:42;100161.31;;;9.46;63.44
56721;BME280;53183;47.412;18.884;2023-10-09T04:26:37;100163.28;;;9.41;63.66
56721;BME280;53183;47.412;18.884;2023-10-09T04:29:07;100155.19;;;9.46;63.08
56721;BME280;53183;47.412;18.884;2023-10-09T04:31:38;100150.09;;;9.41;63.14
56721;BME280;53183;47.412;18.884;2023-10-09T04:34:05;100146.69;;;9.37;63.53
56721;BME280;53183;47.412;18.884;2023-10-09T04:36:51;100143.78;;;9.45;63.69
56721;BME280;53183;47.412;18.884;2023-10-09T04:39:28;100131.38;;;9.47;62.91
56721;BME280;53183;47.412;18.884;2023-10-09T04:42:00;100130.94;;;10.65;69.96
56721;BME280;53183;47.412;18.884;2023-10-09T04:44:47;100132.37;;;11.87;63.13
56721;BME280;53183;47.412;18.884;2023-10-09T04:47:47;100122.53;;;12.08;55.85
56721;BME280;53183;47.412;18.884;2023-10-09T04:50:25;100119.22;;;11.47;56.49
56721;BME280;53183;47.412;18.884;2023-10-09T04:52:59;100110.16;;;10.96;57.95
56721;BME280;53183;47.412;18.884;2023-10-09T04:55:45;100123.16;;;10.62;58.60
56721;BME280;53183;47.412;18.884;2023-10-09T04:58:25;100108.84;;;10.25;60.06
56721;BME280;53183;47.412;18.884;2023-10-09T05:00:59;100117.16;;;10.16;60.48
56721;BME280;53183;47.412;18.884;2023-10-09T05:03:26;100118.72;;;9.99;61.01
56721;BME280;53183;47.412;18.884;2023-10-09T05:06:13;100107.69;;;9.90;61.44
56721;BME280;53183;47.412;18.884;2023-10-09T05:08:59;100103.66;;;9.81;61.83
56721;BME280;53183;47.412;18.884;2023-10-09T05:11:36;100102.47;;;9.66;61.94
56721;BME280;53183;47.412;18.884;2023-10-09T05:14:22;100097.81;;;9.51;62.34
56721;BME280;53183;47.412;18.884;2023-10-09T05:17:06;100101.84;;;9.37;62.72
56721;BME280;53183;47.412;18.884;2023-10-09T05:19:34;100098.22;;;9.40;62.71
56721;BME280;53183;47.412;18.884;2023-10-09T05:22:22;100084.94;;;9.43;62.61
56721;BME280;53183;47.412;18.884;2023-10-09T05:25:06;100091.06;;;9.44;62.43
56721;BME280;53183;47.412;18.884;2023-10-09T05:27:44;100092.25;;;9.58;61.88
56721;BME280;53183;47.412;18.884;2023-10-09T05:30:19;100084.06;;;9.43;62.68
56721;BME280;53183;47.412;18.884;2023-10-09T05:32:56;100105.37;;;9.38;63.13
56721;BME280;53183;47.412;18.884;2023-10-09T05:35:31;100106.25;;;9.37;63.33
56721;BME280;53183;47.412;18.884;2023-10-09T05:38:08;100088.72;;;9.36;63.68
56721;BME280;53183;47.412;18.884;2023-10-09T05:40:51;100104.91;;;9.27;64.08
56721;BME280;53183;47.412;18.884;2023-10-09T05:43:32;100105.47;;;9.35;64.04
56721;BME280;53183;47.412;18.884;2023-10-09T05:46:18;100108.00;;;9.38;63.41
56721;BME280;53183;47.412;18.884;2023-10-09T05:48:46;100122.91;;;9.39;62.24
56721;BME280;53183;47.412;18.884;2023-10-09T05:51:22;100139.81;;;9.33;62.29
56721;BME280;53183;47.412;18.884;2023-10-09T05:54:08;100140.41;;;9.42;61.57
56721;BME280;53183;47.412;18.884;2023-10-09T05:56:39;100130.12;;;9.34;61.31
56721;BME280;53183;47.412;18.884;2023-10-09T05:59:25;100117.19;;;9.50;61.11
56721;BME280;53183;47.412;18.884;2023-10-09T06:02:11;100111.75;;;9.54;60.58
56721;BME280;53183;47.412;18.884;2023-10-09T06:05:15;100100.09;;;9.60;60.68
56721;BME280;53183;47.412;18.884;2023-10-09T06:08:03;100102.72;;;9.60;60.14
56721;BME280;53183;47.412;18.884;2023-10-09T06:10:34;100089.25;;;9.68;59.61
56721;BME280;53183;47.412;18.884;2023-10-09T06:13:08;100083.16;;;9.66;59.09
56721;BME280;53183;47.412;18.884;2023-10-09T06:15:56;100073.31;;;9.69;58.85
56721;BME280;53183;47.412;18.884;2023-10-09T06:18:36;100074.63;;;9.81;58.33
56721;BME280;53183;47.412;18.884;2023-10-09T06:21:10;100060.16;;;9.90;58.36
56721;BME280;53183;47.412;18.884;2023-10-09T06:23:56;100065.31;;;9.93;57.69
56721;BME280;53183;47.412;18.884;2023-10-09T06:26:44;100061.22;;;10.06;57.12
56721;BME280;53183;47.412;18.884;2023-10-09T06:29:27;100066.28;;;10.32;56.46
56721;BME280;53183;47.412;18.884;2023-10-09T06:32:08;100065.44;;;10.32;55.60
56721;BME280;53183;47.412;18.884;2023-10-09T06:34:57;100061.00;;;10.32;56.10
56721;BME280;53183;47.412;18.884;2023-10-09T06:37:47;100056.09;;;10.23;56.20
56721;BME280;53183;47.412;18.884;2023-10-09T06:40:47;100065.91;;;10.20;56.59
56721;BME280;53183;47.412;18.884;2023-10-09T06:43:34;100071.78;;;10.28;55.51
56721;BME280;53183;47.412;18.884;2023-10-09T06:46:03;100067.34;;;10.28;55.50
56721;BME280;53183;47.412;18.884;2023-10-09T06:48:49;100068.53;;;10.42;54.44
56721;BME280;53183;47.412;18.884;2023-10-09T06:51:23;100069.00;;;10.31;54.12
56721;BME280;53183;47.412;18.884;2023-10-09T06:53:55;100060.22;;;10.30;54.75
56721;BME280;53183;47.412;18.884;2023-10-09T06:56:27;100066.28;;;10.32;54.79
56721;BME280;53183;47.412;18.884;2023-10-09T06:59:00;100062.72;;;10.33;54.63
56721;BME280;53183;47.412;18.884;2023-10-09T07:01:32;100052.50;;;10.46;54.34
56721;BME280;53183;47.412;18.884;2023-10-09T07:04:13;100048.19;;;10.63;54.39
56721;BME280;53183;47.412;18.884;2023-10-09T07:07:07;100046.87;;;10.73;54.06
56721;BME280;53183;47.412;18.884;2023-10-09T07:09:37;100035.50;;;10.71;52.60
56721;BME280;53183;47.412;18.884;2023-10-09T07:12:11;100032.22;;;10.85;52.68
56721;BME280;53183;47.412;18.884;2023-10-09T07:15:08;100033.59;;;10.93;52.49
56721;BME280;53183;47.412;18.884;2023-10-09T07:17:36;100031.16;;;11.08;51.97
56721;BME280;53183;47.412;18.884;2023-10-09T07:20:04;100026.94;;;11.22;51.12
56721;BME280;53183;47.412;18.884;2023-10-09T07:22:42;100026.47;;;11.32;50.58
56721;BME280;53183;47.412;18.884;2023-10-09T07:25:36;100025.84;;;11.45;48.63
56721;BME280;53183;47.412;18.884;2023-10-09T07:28:30;100019.28;;;11.35;47.52
56721;BME280;53183;47.412;18.884;2023-10-09T07:31:05;100023.37;;;11.41;47.60
56721;BME280;53183;47.412;18.884;2023-10-09T07:33:37;100023.87;;;11.49;47.75
56721;BME280;53183;47.412;18.884;2023-10-09T07:36:24;100007.31;;;11.63;46.94
56721;BME280;53183;47.412;18.884;2023-10-09T07:39:02;99988.63;;;11.66;46.26
56721;BME280;53183;47.412;18.884;2023-10-09T07:41:41;99979.69;;;11.68;46.21
56721;BME280;53183;47.412;18.884;2023-10-09T07:44:23;99964.41;;;11.73;45.72
56721;BME280;53183;47.412;18.884;2023-10-09T07:47:05;99956.88;;;11.66;46.26
56721;BME280;53183;47.412;18.884;2023-10-09T07:49:49;99946.50;;;11.96;45.36
56721;BME280;53183;47.412;18.884;2023-10-09T07:52:22;99947.25;;;12.15;45.01
56721;BME280;53183;47.412;18.884;2023-10-09T07:54:49;99935.66;;;12.34;44.05
56721;BME280;53183;47.412;18.884;2023-10-09T07:57:21;99929.06;;;12.74;43.76
56721;BME280;53183;47.412;18.884;2023-10-09T07:59:54;99912.03;;;12.94;42.55
56721;BME280;53183;47.412;18.884;2023-10-09T08:02:40;99916.44;;;13.25;42.37
56721;BME280;53183;47.412;18.884;2023-10-09T08:05:09;99915.94;;;13.49;41.65
56721;BME280;53183;47.412;18.884;2023-10-09T08:07:50;99924.37;;;13.41;41.00
56721;BME280;53183;47.412;18.884;2023-10-09T08:11:07;99919.16;;;13.40;40.46
56721;BME280;53183;47.412;18.884;2023-10-09T08:13:54;99917.81;;;13.17;40.40
56721;BME280;53183;47.412;18.884;2023-10-09T08:16:21;99922.81;;;12.91;40.52
56721;BME280;53183;47.412;18.884;2023-10-09T08:18:55;99920.66;;;12.98;40.88
56721;BME280;53183;47.412;18.884;2023-10-09T08:21:24;99909.47;;;12.77;40.40
56721;BME280;53183;47.412;18.884;2023-10-09T08:24:11;99910.44;;;13.06;40.58
56721;BME280;53183;47.412;18.884;2023-10-09T08:26:59;99890.78;;;13.10;40.80
56721;BME280;53183;47.412;18.884;2023-10-09T08:30:03;99886.41;;;13.25;39.67
56721;BME280;53183;47.412;18.884;2023-10-09T08:32:48;99887.03;;;13.44;39.68
56721;BME280;53183;47.412;18.884;2023-10-09T08:35:33;99882.19;;;13.51;39.77
56721;BME280;53183;47.412;18.884;2023-10-09T08:38:02;99877.97;;;13.63;39.56
56721;BME280;53183;47.412;18.884;2023-10-09T08:40:40;99883.66;;;13.85;39.64
56721;BME280;53183;47.412;18.884;2023-10-09T08:43:17;99875.50;;;13.88;38.71
56721;BME280;53183;47.412;18.884;2023-10-09T08:45:49;99872.00;;;14.16;38.62
56721;BME280;53183;47.412;18.884;2023-10-09T08:48:20;99866.50;;;14.19;38.63
56721;BME280;53183;47.412;18.884;2023-10-09T08:50:50;99871.78;;;14.48;38.25
56721;BME280;53183;47.412;18.884;2023-10-09T08:53:18;99866.81;;;14.70;38.02
56721;BME280;53183;47.412;18.884;2023-10-09T08:55:47;99863.28;;;14.84;37.29
56721;BME280;53183;47.412;18.884;2023-10-09T08:58:15;99858.28;;;14.92;37.86
56721;BME280;53183;47.412;18.884;2023-10-09T09:00:48;99854.38;;;14.98;37.85
56721;BME280;53183;47.412;18.884;2023-10-09T09:03:19;99860.62;;;14.97;36.78
56721;BME280;53183;47.412;18.884;2023-10-09T09:06:01;99852.50;;;14.86;37.74
56721;BME280;53183;47.412;18.884;2023-10-09T09:08:33;99849.66;;;14.89;37.60
56721;BME280;53183;47.412;18.884;2023-10-09T09:11:07;99846.97;;;15.16;37.34
56721;BME280;53183;47.412;18.884;2023-10-09T09:14:02;99838.88;;;15.17;37.68
56721;BME280;53183;47.412;18.884;2023-10-09T09:16:35;99817.84;;;15.00;37.74
56721;BME280;53183;47.412;18.884;2023-10-09T09:19:05;99820.38;;;15.29;37.82
56721;BME280;53183;47.412;18.884;2023-10-09T09:21:38;99818.03;;;15.49;37.55
56721;BME280;53183;47.412;18.884;2023-10-09T09:24:12;99821.13;;;15.56;37.09
56721;BME280;53183;47.412;18.884;2023-10-09T09:26:44;99829.66;;;15.48;37.19
56721;BME280;53183;47.412;18.884;2023-10-09T09:32:10;99836.50;;;15.91;36.52
56721;BME280;53183;47.412;18.884;2023-10-09T09:34:47;99828.84;;;15.99;36.08
56721;BME280;53183;47.412;18.884;2023-10-09T09:37:19;99817.00;;;16.03;36.00
56721;BME280;53183;47.412;18.884;2023-10-09T09:39:50;99815.47;;;16.12;36.46
56721;BME280;53183;47.412;18.884;2023-10-09T09:42:23;99813.69;;;16.12;36.17
56721;BME280;53183;47.412;18.884;2023-10-09T09:44:56;99826.69;;;15.91;36.28
56721;BME280;53183;47.412;18.884;2023-10-09T09:47:26;99826.81;;;15.90;36.73
56721;BME280;53183;47.412;18.884;2023-10-09T09:49:57;99830.47;;;15.76;35.88
56721;BME280;53183;47.412;18.884;2023-10-09T09:52:29;99819.22;;;15.45;36.06
56721;BME280;53183;47.412;18.884;2023-10-09T09:55:09;99803.94;;;15.09;37.07
56721;BME280;53183;47.412;18.884;2023-10-09T09:57:50;99801.94;;;15.25;38.07
56721;BME280;53183;47.412;18.884;2023-10-09T10:00:27;99799.06;;;15.29;38.28
56721;BME280;53183;47.412;18.884;2023-10-09T10:03:20;99795.13;;;15.34;37.22
56721;BME280;53183;47.412;18.884;2023-10-09T10:05:50;99785.53;;;15.19;37.53
56721;BME280;53183;47.412;18.884;2023-10-09T10:08:20;99782.88;;;15.44;37.79
56721;BME280;53183;47.412;18.884;2023-10-09T10:10:49;99786.31;;;15.46;37.84
56721;BME280;53183;47.412;18.884;2023-10-09T10:16:10;99767.22;;;15.65;37.06
56721;BME280;53183;47.412;18.884;2023-10-09T10:18:59;99759.88;;;15.82;36.87
56721;BME280;53183;47.412;18.884;2023-10-09T10:21:38;99738.47;;;15.58;36.57
56721;BME280;53183;47.412;18.884;2023-10-09T10:32:53;99703.22;;;15.29;37.53
56721;BME280;53183;47.412;18.884;2023-10-09T10:35:21;99689.25;;;15.25;37.84
56721;BME280;53183;47.412;18.884;2023-10-09T10:38:32;99690.44;;;15.34;38.03
56721;BME280;53183;47.412;18.884;2023-10-09T10:41:17;99697.38;;;15.11;37.98
56721;BME280;53183;47.412;18.884;2023-10-09T10:43:46;99697.25;;;15.12;38.45
56721;BME280;53183;47.412;18.884;2023-10-09T10:46:18;99676.78;;;15.25;37.78
56721;BME280;53183;47.412;18.884;2023-10-09T10:49:07;99656.66;;;15.47;38.34
56721;BME280;53183;47.412;18.884;2023-10-09T10:51:49;99643.75;;;15.66;37.45
56721;BME280;53183;47.412;18.884;2023-10-09T10:54:22;99657.47;;;15.73;36.85
56721;BME280;53183;47.412;18.884;2023-10-09T10:57:00;99647.84;;;15.83;37.08
56721;BME280;53183;47.412;18.884;2023-10-09T10:59:30;99659.00;;;15.88;37.05
56721;BME280;53183;47.412;18.884;2023-10-09T11:02:11;99652.59;;;16.15;36.06
56721;BME280;53183;47.412;18.884;2023-10-09T11:04:39;99649.66;;;16.31;37.06
56721;BME280;53183;47.412;18.884;2023-10-09T11:07:09;99653.16;;;16.55;36.52
56721;BME280;53183;47.412;18.884;2023-10-09T11:09:52;99628.63;;;16.61;36.49
56721;BME280;53183;47.412;18.884;2023-10-09T11:15:11;99591.13;;;16.87;36.20
56721;BME280;53183;47.412;18.884;2023-10-09T11:18:07;99610.41;;;16.91;35.88
56721;BME280;53183;47.412;18.884;2023-10-09T11:20:37;99637.09;;;16.91;35.61
56721;BME280;53183;47.412;18.884;2023-10-09T11:23:22;99615.28;;;17.19;35.63
56721;BME280;53183;47.412;18.884;2023-10-09T11:26:05;99637.50;;;17.20;35.60
56721;BME280;53183;47.412;18.884;2023-10-09T11:34:33;99619.25;;;16.45;37.51
56721;BME280;53183;47.412;18.884;2023-10-09T11:39:39;99628.53;;;16.98;38.01
56721;BME280;53183;47.412;18.884;2023-10-09T11:42:29;99652.09;;;16.69;38.17
56721;BME280;53183;47.412;18.884;2023-10-09T11:45:27;99648.44;;;16.70;38.18
56721;BME280;53183;47.412;18.884;2023-10-09T11:48:17;99659.78;;;16.50;38.03
56721;BME280;53183;47.412;18.884;2023-10-09T11:51:12;99655.59;;;16.58;38.06
56721;BME280;53183;47.412;18.884;2023-10-09T11:53:48;99645.63;;;16.96;37.85
56721;BME280;53183;47.412;18.884;2023-10-09T11:56:21;99641.69;;;16.77;38.09
56721;BME280;53183;47.412;18.884;2023-10-09T11:58:49;99651.53;;;16.77;38.39
56721;BME280;53183;47.412;18.884;2023-10-09T12:01:22;99623.78;;;17.13;38.02
56721;BME280;53183;47.412;18.884;2023-10-09T12:03:50;99636.66;;;17.08;38.32
56721;BME280;53183;47.412;18.884;2023-10-09T12:06:19;99621.59;;;17.29;38.41
56721;BME280;53183;47.412;18.884;2023-10-09T12:08:49;99625.34;;;17.27;38.55
56721;BME280;53183;47.412;18.884;2023-10-09T12:11:18;99612.13;;;17.25;39.39
56721;BME280;53183;47.412;18.884;2023-10-09T12:13:51;99607.97;;;16.87;40.85
56721;BME280;53183;47.412;18.884;2023-10-09T12:16:24;99591.28;;;17.08;40.38
56721;BME280;53183;47.412;18.884;2023-10-09T12:18:56;99583.03;;;17.11;40.08
56721;BME280;53183;47.412;18.884;2023-10-09T12:21:24;99573.91;;;17.25;40.42
56721;BME280;53183;47.412;18.884;2023-10-09T12:23:55;99573.63;;;17.39;42.86
56721;BME280;53183;47.412;18.884;2023-10-09T12:26:28;99562.34;;;17.35;42.60
56721;BME280;53183;47.412;18.884;2023-10-09T12:28:55;99555.75;;;17.51;40.92
56721;BME280;53183;47.412;18.884;2023-10-09T12:31:26;99552.59;;;17.46;40.46
56721;BME280;53183;47.412;18.884;2023-10-09T12:33:54;99559.75;;;17.56;40.26
56721;BME280;53183;47.412;18.884;2023-10-09T12:36:25;99557.84;;;17.36;40.90
56721;BME280;53183;47.412;18.884;2023-10-09T12:38:56;99550.44;;;17.40;40.54
56721;BME280;53183;47.412;18.884;2023-10-09T12:41:28;99533.97;;;17.67;40.12
56721;BME280;53183;47.412;18.884;2023-10-09T12:44:01;99527.59;;;17.90;40.08
56721;BME280;53183;47.412;18.884;2023-10-09T12:46:29;99536.84;;;17.86;40.25
56721;BME280;53183;47.412;18.884;2023-10-09T12:49:05;99546.59;;;18.08;40.71
56721;BME280;53183;47.412;18.884;2023-10-09T12:51:32;99563.03;;;18.45;39.88
56721;BME280;53183;47.412;18.884;2023-10-09T12:53:59;99558.16;;;18.50;40.86
56721;BME280;53183;47.412;18.884;2023-10-09T12:56:29;99553.84;;;18.17;42.58
56721;BME280;53183;47.412;18.884;2023-10-09T12:59:06;99547.12;;;17.58;44.20
56721;BME280;53183;47.412;18.884;2023-10-09T13:01:37;99545.66;;;17.77;44.33
56721;BME280;53183;47.412;18.884;2023-10-09T13:04:12;99538.06;;;18.14;46.43
56721;BME280;53183;47.412;18.884;2023-10-09T13:06:44;99533.88;;;18.00;47.70
56721;BME280;53183;47.412;18.884;2023-10-09T13:09:14;99535.09;;;17.96;48.09
56721;BME280;53183;47.412;18.884;2023-10-09T13:11:44;99525.62;;;17.92;48.42
56721;BME280;53183;47.412;18.884;2023-10-09T13:14:15;99528.91;;;17.96;49.70
56721;BME280;53183;47.412;18.884;2023-10-09T13:16:51;99527.91;;;17.53;50.83
56721;BME280;53183;47.412;18.884;2023-10-09T13:19:20;99533.94;;;17.34;49.49
56721;BME280;53183;47.412;18.884;2023-10-09T13:21:51;99523.50;;;17.31;50.56
56721;BME280;53183;47.412;18.884;2023-10-09T13:24:19;99524.19;;;17.45;53.62
56721;BME280;53183;47.412;18.884;2023-10-09T13:26:51;99524.34;;;17.21;53.98
56721;BME280;53183;47.412;18.884;2023-10-09T13:29:24;99515.59;;;17.30;54.69
56721;BME280;53183;47.412;18.884;2023-10-09T13:31:53;99519.16;;;16.97;53.95
56721;BME280;53183;47.412;18.884;2023-10-09T13:34:25;99508.00;;;16.80;54.24
56721;BME280;53183;47.412;18.884;2023-10-09T13:37:00;99513.31;;;16.58;57.68
56721;BME280;53183;47.412;18.884;2023-10-09T13:39:38;99525.31;;;16.52;59.82
56721;BME280;53183;47.412;18.884;2023-10-09T13:42:09;99539.81;;;16.26;61.02
56721;BME280;53183;47.412;18.884;2023-10-09T13:44:37;99534.97;;;15.95;64.85
56721;BME280;53183;47.412;18.884;2023-10-09T13:47:09;99528.78;;;15.84;64.13
56721;BME280;53183;47.412;18.884;2023-10-09T13:49:49;99521.84;;;15.81;65.44
56721;BME280;53183;47.412;18.884;2023-10-09T13:52:18;99515.38;;;15.73;64.66
56721;BME280;53183;47.412;18.884;2023-10-09T13:54:46;99513.63;;;15.60;66.22
56721;BME280;53183;47.412;18.884;2023-10-09T13:57:20;99508.75;;;15.54;66.58
56721;BME280;53183;47.412;18.884;2023-10-09T13:59:54;99498.25;;;15.64;67.63